createdAt,value
2022-10-24T00:01:12.878Z,99794.06
2022-10-24T00:03:40.396Z,99793.66
2022-10-24T00:06:08.141Z,99794.06
2022-10-24T00:08:35.701Z,99775.78
2022-10-24T00:11:03.254Z,99783.69
2022-10-24T00:13:30.728Z,99792.91
2022-10-24T00:15:59.510Z,99796.66
2022-10-24T00:18:27.065Z,99770.38
2022-10-24T00:20:54.556Z,99774.97
2022-10-24T00:23:21.993Z,99775.53
2022-10-24T00:25:49.446Z,99780.34
2022-10-24T00:28:16.909Z,99773.06
2022-10-24T00:30:44.360Z,99771.25
2022-10-24T00:33:13.190Z,99766.94
2022-10-24T00:35:40.685Z,99757.56
2022-10-24T00:38:08.125Z,99767.75
2022-10-24T00:40:35.609Z,99764.28
2022-10-24T00:43:03.042Z,99772.25
2022-10-24T00:45:38.326Z,99765.47
2022-10-24T00:48:10.058Z,99767.69
2022-10-24T00:50:38.845Z,99747.84
2022-10-24T00:53:06.282Z,99755.78
2022-10-24T00:55:33.750Z,99750.44
2022-10-24T00:58:01.761Z,99746.47
2022-10-24T01:00:30.589Z,99728.22
2022-10-24T01:02:58.154Z,99734.59
2022-10-24T01:05:26.226Z,99730.34
2022-10-24T01:07:56.501Z,99739.00
2022-10-24T01:10:30.678Z,99731.53
2022-10-24T01:13:00.890Z,99727.66
2022-10-24T01:15:29.697Z,99724.09
2022-10-24T01:17:58.273Z,99719.91
2022-10-24T01:20:46.563Z,99726.53
2022-10-24T01:23:20.724Z,99726.38
2022-10-24T01:25:48.553Z,99724.94
2022-10-24T01:28:16.580Z,99704.75
2022-10-24T01:30:46.590Z,99715.34
2022-10-24T01:33:16.150Z,99700.66
2022-10-24T01:35:44.489Z,99702.41
2022-10-24T01:38:13.837Z,99682.09
2022-10-24T01:40:42.695Z,99690.69
2022-10-24T01:43:11.026Z,99682.22
2022-10-24T01:45:39.305Z,99677.94
2022-10-24T01:48:08.672Z,99678.94
2022-10-24T01:50:36.555Z,99680.97
2022-10-24T01:53:04.384Z,99673.44
2022-10-24T01:55:31.860Z,99665.69
2022-10-24T01:57:59.341Z,99665.44
2022-10-24T02:00:27.129Z,99665.66
2022-10-24T02:02:56.238Z,99658.75
2022-10-24T02:05:25.602Z,99668.72
2022-10-24T02:07:54.288Z,99644.84
2022-10-24T02:10:23.185Z,99643.91
2022-10-24T02:12:51.564Z,99643.22
2022-10-24T02:15:19.801Z,99644.09
2022-10-24T02:17:47.486Z,99641.56
2022-10-24T02:20:15.014Z,99641.28
2022-10-24T02:22:47.159Z,99635.94
2022-10-24T02:25:16.061Z,99628.69
2022-10-24T02:27:44.779Z,99628.91
2022-10-24T02:30:13.251Z,99620.25
2022-10-24T02:32:41.295Z,99611.91
2022-10-24T02:35:10.264Z,99616.84
2022-10-24T02:37:39.022Z,99609.47
2022-10-24T02:40:09.033Z,99614.53
2022-10-24T02:42:36.620Z,99605.13
2022-10-24T02:45:04.250Z,99606.47
2022-10-24T02:47:31.717Z,99604.34
2022-10-24T02:49:59.178Z,99601.72
2022-10-24T02:52:26.768Z,99613.06
2022-10-24T02:54:54.257Z,99612.94
2022-10-24T02:57:23.665Z,99614.72
2022-10-24T02:59:51.202Z,99593.34
2022-10-24T03:02:18.706Z,99604.09
2022-10-24T03:04:46.225Z,99614.41
2022-10-24T03:07:13.715Z,99612.44
2022-10-24T03:09:41.168Z,99609.88
2022-10-24T03:12:08.673Z,99613.53
2022-10-24T03:14:37.504Z,99602.91
2022-10-24T03:17:04.936Z,99613.03
2022-10-24T03:19:32.409Z,99610.81
2022-10-24T03:21:59.897Z,99607.13
2022-10-24T03:24:43.296Z,99602.06
2022-10-24T03:27:12.258Z,99609.28
2022-10-24T03:29:41.499Z,99611.25
2022-10-24T03:32:09.349Z,99601.34
2022-10-24T03:34:36.800Z,99606.03
2022-10-24T03:37:04.245Z,99614.84
2022-10-24T03:39:31.729Z,99610.66
2022-10-24T03:41:59.480Z,99612.13
2022-10-24T03:44:26.970Z,99597.81
2022-10-24T03:46:55.811Z,99606.47
2022-10-24T03:49:23.341Z,99604.22
2022-10-24T03:51:50.825Z,99588.91
2022-10-24T03:54:18.365Z,99594.03
2022-10-24T03:56:47.866Z,99602.19
2022-10-24T03:59:15.341Z,99606.84
2022-10-24T04:01:43.037Z,99618.38
2022-10-24T04:04:11.880Z,99617.75
2022-10-24T04:06:40.042Z,99619.50
2022-10-24T04:09:07.593Z,99618.28
2022-10-24T04:11:35.067Z,99606.47
2022-10-24T04:16:35.107Z,99607.72
2022-10-24T04:19:02.735Z,99594.78
2022-10-24T04:21:31.546Z,99599.16
2022-10-24T04:23:59.044Z,99608.53
2022-10-24T04:26:26.494Z,99612.00
2022-10-24T04:28:53.974Z,99612.41
2022-10-24T04:31:23.534Z,99614.56
2022-10-24T04:33:51.430Z,99603.53
2022-10-24T04:36:18.917Z,99607.31
2022-10-24T04:38:47.753Z,99602.09
2022-10-24T04:41:15.230Z,99590.00
2022-10-24T04:43:42.711Z,99594.78
2022-10-24T04:46:10.409Z,99589.69
2022-10-24T04:48:37.850Z,99599.25
2022-10-24T04:51:05.544Z,99589.56
2022-10-24T04:53:33.030Z,99598.22
2022-10-24T04:56:01.846Z,99609.41
2022-10-24T04:58:29.314Z,99609.19
2022-10-24T05:00:56.780Z,99602.31
2022-10-24T05:03:24.241Z,99601.47
2022-10-24T05:05:51.721Z,99620.91
2022-10-24T05:08:19.173Z,99614.84
2022-10-24T05:10:46.740Z,99602.00
2022-10-24T05:13:15.977Z,99611.59
2022-10-24T05:15:44.064Z,99605.91
2022-10-24T05:18:11.540Z,99606.06
2022-10-24T05:23:11.494Z,99609.91
2022-10-24T05:25:38.945Z,99610.16
2022-10-24T05:28:06.429Z,99606.69
2022-10-24T05:30:35.228Z,99599.66
2022-10-24T05:33:02.687Z,99606.06
2022-10-24T05:35:30.156Z,99598.56
2022-10-24T05:37:57.606Z,99603.03
2022-10-24T05:40:25.084Z,99606.78
2022-10-24T05:42:52.949Z,99582.31
2022-10-24T05:45:20.472Z,99592.34
2022-10-24T05:47:49.287Z,99594.25
2022-10-24T05:50:16.804Z,99598.28
2022-10-24T05:52:46.989Z,99606.66
2022-10-24T05:55:17.964Z,99604.22
2022-10-24T05:57:46.459Z,99603.31
2022-10-24T06:00:15.209Z,99611.47
2022-10-24T06:02:42.914Z,99614.75
2022-10-24T06:05:12.692Z,99616.06
2022-10-24T06:07:41.968Z,99610.94
2022-10-24T06:10:10.130Z,99600.81
2022-10-24T06:12:37.588Z,99615.84
2022-10-24T06:15:05.893Z,99605.66
2022-10-24T06:17:33.740Z,99594.31
2022-10-24T06:20:01.194Z,99612.81
2022-10-24T06:22:30.041Z,99595.75
2022-10-24T06:24:57.553Z,99611.72
2022-10-24T06:27:25.404Z,99608.53
2022-10-24T06:29:52.877Z,99619.63
2022-10-24T06:32:20.300Z,99604.16
2022-10-24T06:34:47.736Z,99607.97
2022-10-24T06:37:15.207Z,99613.22
2022-10-24T06:39:44.025Z,99616.34
2022-10-24T06:42:11.477Z,99626.88
2022-10-24T06:44:39.594Z,99620.75
2022-10-24T06:47:07.068Z,99624.22
2022-10-24T06:49:34.571Z,99612.22
2022-10-24T06:52:02.066Z,99623.25
2022-10-24T06:54:30.465Z,99631.84
2022-10-24T06:56:59.509Z,99629.25
2022-10-24T06:59:27.077Z,99627.97
2022-10-24T07:01:54.624Z,99638.50
2022-10-24T07:04:22.170Z,99630.78
2022-10-24T07:06:49.665Z,99631.22
2022-10-24T07:09:17.160Z,99649.16
2022-10-24T07:11:44.646Z,99642.66
2022-10-24T07:14:13.509Z,99644.41
2022-10-24T07:16:41.229Z,99654.63
2022-10-24T07:19:08.685Z,99665.22
2022-10-24T07:21:36.157Z,99638.34
2022-10-24T07:24:03.980Z,99654.28
2022-10-24T07:26:31.542Z,99666.53
2022-10-24T07:29:03.916Z,99665.78
2022-10-24T07:31:33.700Z,99683.69
2022-10-24T07:34:01.874Z,99672.31
2022-10-24T07:36:30.528Z,99673.06
2022-10-24T07:38:58.340Z,99684.59
2022-10-24T07:41:26.117Z,99670.16
2022-10-24T07:43:54.898Z,99668.69
2022-10-24T07:46:22.429Z,99672.88
2022-10-24T07:48:51.579Z,99666.03
2022-10-24T07:51:19.335Z,99669.81
2022-10-24T07:53:47.008Z,99675.59
2022-10-24T07:56:15.637Z,99665.56
2022-10-24T07:58:43.652Z,99661.50
2022-10-24T08:01:12.373Z,99661.16
2022-10-24T08:03:40.132Z,99664.41
2022-10-24T08:06:10.039Z,99667.06
2022-10-24T08:08:38.006Z,99645.66
2022-10-24T08:11:07.977Z,99659.06
2022-10-24T08:13:35.423Z,99644.59
2022-10-24T08:16:03.699Z,99671.91
2022-10-24T08:18:32.789Z,99668.69
2022-10-24T08:21:02.704Z,99655.81
2022-10-24T08:23:31.899Z,99663.59
2022-10-24T08:25:59.474Z,99652.16
2022-10-24T08:28:27.097Z,99667.19
2022-10-24T08:30:57.886Z,99661.84
2022-10-24T08:33:25.404Z,99651.50
2022-10-24T08:35:53.034Z,99657.28
2022-10-24T08:38:20.483Z,99668.22
2022-10-24T08:40:49.877Z,99687.47
2022-10-24T08:43:17.502Z,99696.50
2022-10-24T08:45:45.753Z,99679.47
2022-10-24T08:48:13.970Z,99692.47
2022-10-24T08:50:41.973Z,99680.47
2022-10-24T08:53:11.027Z,99675.84
2022-10-24T08:55:54.911Z,99671.03
2022-10-24T08:58:24.926Z,99701.69
2022-10-24T09:00:52.913Z,99689.97
2022-10-24T09:03:31.450Z,99702.22
2022-10-24T09:06:11.621Z,99685.81
2022-10-24T09:08:39.702Z,99691.19
2022-10-24T09:11:07.566Z,99686.28
2022-10-24T09:13:36.885Z,99684.88
2022-10-24T09:16:05.736Z,99696.34
2022-10-24T09:18:34.333Z,99684.56
2022-10-24T09:21:02.212Z,99704.41
2022-10-24T09:23:29.682Z,99704.16
2022-10-24T09:25:57.992Z,99713.38
2022-10-24T09:28:25.533Z,99712.78
2022-10-24T09:30:54.357Z,99725.91
2022-10-24T09:33:24.625Z,99712.50
2022-10-24T09:35:52.944Z,99717.88
2022-10-24T09:38:28.363Z,99705.66
2022-10-24T09:40:56.585Z,99717.22
2022-10-24T09:43:33.012Z,99730.28
2022-10-24T09:46:03.942Z,99723.19
2022-10-24T09:48:32.558Z,99704.56
2022-10-24T09:51:00.406Z,99729.78
2022-10-24T09:53:28.722Z,99736.28
2022-10-24T09:55:58.110Z,99739.66
2022-10-24T09:58:29.851Z,99746.66
2022-10-24T10:00:58.324Z,99753.34
2022-10-24T10:03:28.386Z,99746.28
2022-10-24T10:05:56.270Z,99767.94
2022-10-24T10:08:24.431Z,99753.06
2022-10-24T10:10:59.201Z,99741.78
2022-10-24T10:13:27.599Z,99748.63
2022-10-24T10:15:55.942Z,99744.59
2022-10-24T10:18:24.414Z,99767.72
2022-10-24T10:21:00.132Z,99748.28
2022-10-24T10:23:28.283Z,99753.94
2022-10-24T10:26:02.994Z,99747.78
2022-10-24T10:28:30.480Z,99769.94
2022-10-24T10:30:59.033Z,99741.59
2022-10-24T10:33:29.723Z,99774.84
2022-10-24T10:35:59.792Z,99781.38
2022-10-24T10:38:33.980Z,99751.69
2022-10-24T10:41:02.752Z,99767.69
2022-10-24T10:43:31.797Z,99779.50
2022-10-24T10:46:03.885Z,99783.69
2022-10-24T10:48:36.039Z,99771.63
2022-10-24T10:51:08.152Z,99799.22
2022-10-24T10:53:38.405Z,99781.13
2022-10-24T10:56:08.114Z,99783.38
2022-10-24T10:58:38.620Z,99785.25
2022-10-24T11:01:08.897Z,99803.94
2022-10-24T11:03:38.286Z,99804.88
2022-10-24T11:06:09.473Z,99794.91
2022-10-24T11:08:41.001Z,99792.22
2022-10-24T11:11:09.266Z,99782.63
2022-10-24T11:13:38.477Z,99763.19
2022-10-24T11:16:06.869Z,99803.41
2022-10-24T11:18:35.633Z,99817.44
2022-10-24T11:21:03.576Z,99780.19
2022-10-24T11:23:33.016Z,99808.59
2022-10-24T11:26:02.056Z,99810.81
2022-10-24T11:28:30.405Z,99834.63
2022-10-24T11:31:00.017Z,99834.16
2022-10-24T11:33:28.226Z,99833.66
2022-10-24T11:36:10.611Z,99829.47
2022-10-24T11:38:41.153Z,99823.13
2022-10-24T11:41:17.778Z,99838.34
2022-10-24T11:43:45.278Z,99834.31
2022-10-24T11:46:13.749Z,99827.31
2022-10-24T11:48:42.063Z,99831.13
2022-10-24T11:51:10.869Z,99850.38
2022-10-24T11:53:53.730Z,99845.13
2022-10-24T11:56:27.148Z,99834.94
2022-10-24T11:58:56.299Z,99849.00
2022-10-24T12:01:30.064Z,99864.09
2022-10-24T12:04:06.324Z,99849.56
2022-10-24T12:06:38.804Z,99858.69
2022-10-24T12:09:19.976Z,99853.31
2022-10-24T12:11:54.757Z,99869.13
2022-10-24T12:14:28.148Z,99862.94
2022-10-24T12:17:03.072Z,99846.31
2022-10-24T12:19:30.545Z,99863.78
2022-10-24T12:21:58.602Z,99853.00
2022-10-24T12:24:30.700Z,99857.94
2022-10-24T12:26:58.829Z,99887.53
2022-10-24T12:29:27.098Z,99861.06
2022-10-24T12:31:54.596Z,99881.75
2022-10-24T12:34:32.783Z,99865.03
2022-10-24T12:37:04.421Z,99878.81
2022-10-24T12:39:34.091Z,99858.63
2022-10-24T12:42:01.580Z,99849.75
2022-10-24T12:44:50.486Z,99875.97
2022-10-24T12:47:34.283Z,99876.50
2022-10-24T12:50:21.783Z,99871.78
2022-10-24T12:53:03.454Z,99850.88
2022-10-24T12:55:53.344Z,99869.63
2022-10-24T12:58:22.602Z,99868.28
2022-10-24T13:00:54.111Z,99876.47
2022-10-24T13:03:23.044Z,99873.06
2022-10-24T13:05:53.759Z,99881.97
2022-10-24T13:08:24.412Z,99887.34
2022-10-24T13:10:56.582Z,99888.78
2022-10-24T13:13:37.593Z,99886.72
2022-10-24T13:16:06.885Z,99893.47
2022-10-24T13:18:41.381Z,99887.19
2022-10-24T13:21:15.012Z,99883.31
2022-10-24T13:23:43.783Z,99875.25
2022-10-24T13:26:27.735Z,99882.00
2022-10-24T13:28:55.545Z,99889.25
2022-10-24T13:31:43.030Z,99893.47
2022-10-24T13:34:25.573Z,99908.34
2022-10-24T13:36:55.164Z,99903.78
2022-10-24T13:39:24.692Z,99931.53
2022-10-24T13:41:58.416Z,99916.34
2022-10-24T13:44:26.943Z,99923.91
2022-10-24T13:46:55.299Z,99921.88
2022-10-24T13:49:23.846Z,99932.25
2022-10-24T13:51:52.696Z,99921.69
2022-10-24T13:54:21.509Z,99925.13
2022-10-24T13:56:49.441Z,99946.59
2022-10-24T13:59:31.650Z,99940.22
2022-10-24T14:02:00.262Z,99928.75
2022-10-24T14:04:28.019Z,99950.00
2022-10-24T14:07:00.924Z,99920.22
2022-10-24T14:09:28.677Z,99933.25
2022-10-24T14:11:58.151Z,99945.47
2022-10-24T14:14:28.016Z,99933.09
2022-10-24T14:17:19.282Z,99935.59
2022-10-24T14:19:54.961Z,99945.09
2022-10-24T14:22:23.877Z,99940.72
2022-10-24T14:24:51.770Z,99979.66
2022-10-24T14:27:20.236Z,99973.09
2022-10-24T14:30:14.085Z,99968.59
2022-10-24T14:32:43.307Z,99985.56
2022-10-24T14:35:12.810Z,99968.06
2022-10-24T14:37:41.001Z,99972.47
2022-10-24T14:40:11.993Z,99968.63
2022-10-24T14:42:39.753Z,99977.19
2022-10-24T14:45:08.213Z,99973.72
2022-10-24T14:47:39.060Z,99976.09
2022-10-24T14:50:21.685Z,99993.59
2022-10-24T14:52:50.982Z,99978.41
2022-10-24T14:55:20.735Z,99978.44
2022-10-24T14:57:50.085Z,99977.34
2022-10-24T15:00:20.196Z,99985.44
2022-10-24T15:02:49.057Z,99981.69
2022-10-24T15:05:24.327Z,99967.63
2022-10-24T15:08:20.608Z,99971.81
2022-10-24T15:10:44.029Z,99977.91
2022-10-24T15:13:12.895Z,99981.78
2022-10-24T15:15:48.204Z,99958.44
2022-10-24T15:18:18.094Z,99983.91
2022-10-24T15:20:46.839Z,99995.34
2022-10-24T15:23:20.838Z,99980.53
2022-10-24T15:25:58.205Z,99981.69
2022-10-24T15:28:38.984Z,100016.97
2022-10-24T15:31:10.793Z,100005.50
2022-10-24T15:36:15.408Z,99998.66
2022-10-24T15:38:44.699Z,99992.28
2022-10-24T15:41:12.464Z,99997.72
2022-10-24T15:43:40.313Z,99990.91
2022-10-24T15:46:08.085Z,99992.31
2022-10-24T15:48:36.002Z,99998.13
2022-10-24T15:51:04.146Z,99973.03
2022-10-24T15:53:32.235Z,99990.94
2022-10-24T15:56:03.353Z,99995.69
2022-10-24T15:58:31.631Z,100009.31
2022-10-24T16:00:59.986Z,100001.25
2022-10-24T16:03:28.483Z,99997.22
2022-10-24T16:05:58.302Z,100006.81
2022-10-24T16:08:26.795Z,100010.69
2022-10-24T16:10:55.440Z,100010.72
2022-10-24T16:13:24.690Z,100007.19
2022-10-24T16:15:52.723Z,100031.31
2022-10-24T16:18:20.678Z,100021.78
2022-10-24T16:20:48.571Z,100033.53
2022-10-24T16:23:16.609Z,100011.63
2022-10-24T16:25:44.201Z,100021.38
2022-10-24T16:28:11.705Z,100040.25
2022-10-24T16:30:42.314Z,100039.25
2022-10-24T16:33:09.952Z,100032.25
2022-10-24T16:35:38.223Z,100037.09
2022-10-24T16:38:06.309Z,100027.91
2022-10-24T16:40:37.825Z,100036.56
2022-10-24T16:43:05.447Z,100036.59
2022-10-24T16:45:32.926Z,100041.38
2022-10-24T16:48:01.765Z,100045.56
2022-10-24T16:50:29.950Z,100035.47
2022-10-24T16:52:57.808Z,100051.31
2022-10-24T16:55:25.286Z,100051.16
2022-10-24T16:57:52.769Z,100046.41
2022-10-24T17:00:21.458Z,100043.25
2022-10-24T17:02:50.906Z,100065.84
2022-10-24T17:05:20.423Z,100042.72
2022-10-24T17:07:48.231Z,100038.06
2022-10-24T17:10:18.429Z,100066.22
2022-10-24T17:12:48.341Z,100062.03
2022-10-24T17:15:18.103Z,100066.47
2022-10-24T17:17:49.029Z,100084.75
2022-10-24T17:20:17.313Z,100095.72
2022-10-24T17:22:46.950Z,100083.91
2022-10-24T17:25:17.136Z,100103.97
2022-10-24T17:27:45.004Z,100085.13
2022-10-24T17:30:14.602Z,100077.88
2022-10-24T17:32:42.232Z,100105.66
2022-10-24T17:35:10.825Z,100094.28
2022-10-24T17:37:40.613Z,100077.50
2022-10-24T17:40:13.272Z,100101.72
2022-10-24T17:42:41.320Z,100104.41
2022-10-24T17:45:10.650Z,100110.28
2022-10-24T17:47:38.215Z,100104.56
2022-10-24T17:50:06.178Z,100102.25
2022-10-24T17:52:33.982Z,100104.91
2022-10-24T17:55:01.653Z,100109.00
2022-10-24T17:57:30.607Z,100115.59
2022-10-24T17:59:58.107Z,100124.13
2022-10-24T18:02:25.645Z,100118.00
2022-10-24T18:04:53.177Z,100134.06
2022-10-24T18:07:20.627Z,100128.16
2022-10-24T18:09:48.116Z,100120.53
2022-10-24T18:12:15.574Z,100134.06
2022-10-24T18:14:44.385Z,100126.78
2022-10-24T18:17:11.948Z,100132.91
2022-10-24T18:19:39.430Z,100135.16
2022-10-24T18:22:06.917Z,100138.19
2022-10-24T18:24:34.349Z,100131.28
2022-10-24T18:27:01.800Z,100138.13
2022-10-24T18:29:29.402Z,100139.56
2022-10-24T18:31:58.228Z,100128.44
2022-10-24T18:34:25.713Z,100147.78
2022-10-24T18:36:53.423Z,100134.28
2022-10-24T18:39:20.897Z,100151.44
2022-10-24T18:41:49.803Z,100148.28
2022-10-24T18:44:24.760Z,100151.34
2022-10-24T18:46:52.620Z,100159.59
2022-10-24T18:49:21.792Z,100149.84
2022-10-24T18:51:51.982Z,100157.53
2022-10-24T18:56:52.533Z,100158.50
2022-10-24T18:59:20.582Z,100160.28
2022-10-24T19:01:48.910Z,100158.66
2022-10-24T19:04:19.057Z,100165.44
2022-10-24T19:06:47.942Z,100164.47
2022-10-24T19:09:16.566Z,100154.22
2022-10-24T19:11:44.118Z,100159.81
2022-10-24T19:14:12.524Z,100156.13
2022-10-24T19:16:39.984Z,100152.28
2022-10-24T19:19:07.544Z,100154.22
2022-10-24T19:21:35.003Z,100156.28
2022-10-24T19:24:03.944Z,100158.78
2022-10-24T19:26:31.584Z,100165.66
2022-10-24T19:29:01.127Z,100162.31
2022-10-24T19:31:31.141Z,100169.59
2022-10-24T19:33:58.638Z,100170.97
2022-10-24T19:38:55.148Z,100166.97
2022-10-24T19:41:24.090Z,100156.38
2022-10-24T19:43:51.798Z,100165.25
2022-10-24T19:46:20.357Z,100165.44
2022-10-24T19:48:49.485Z,100176.19
2022-10-24T19:51:17.677Z,100184.63
2022-10-24T19:53:45.231Z,100175.16
2022-10-24T19:56:13.525Z,100187.22
2022-10-24T19:58:42.461Z,100184.22
2022-10-24T20:01:10.740Z,100186.03
2022-10-24T20:03:38.629Z,100174.38
2022-10-24T20:06:06.338Z,100174.97
2022-10-24T20:08:33.816Z,100182.66
2022-10-24T20:11:01.433Z,100182.53
2022-10-24T20:13:28.997Z,100188.25
2022-10-24T20:15:58.318Z,100181.69
2022-10-24T20:18:26.014Z,100192.72
2022-10-24T20:20:53.500Z,100180.31
2022-10-24T20:23:21.205Z,100191.16
2022-10-24T20:25:48.723Z,100183.47
2022-10-24T20:28:16.632Z,100196.50
2022-10-24T20:30:45.000Z,100191.44
2022-10-24T20:33:14.757Z,100174.31
2022-10-24T20:35:42.492Z,100171.03
2022-10-24T20:38:10.048Z,100190.09
2022-10-24T20:40:37.513Z,100183.13
2022-10-24T20:43:07.055Z,100184.47
2022-10-24T20:45:36.806Z,100191.44
2022-10-24T20:48:04.368Z,100169.66
2022-10-24T20:50:33.325Z,100195.09
2022-10-24T20:53:00.819Z,100191.34
2022-10-24T20:55:39.621Z,100200.56
2022-10-24T20:58:12.350Z,100210.13
2022-10-24T21:03:14.303Z,100207.44
2022-10-24T21:05:43.162Z,100214.28
2022-10-24T21:08:10.621Z,100221.91
2022-10-24T21:10:38.083Z,100220.63
2022-10-24T21:13:05.529Z,100223.75
2022-10-24T21:15:33.000Z,100224.47
2022-10-24T21:18:00.483Z,100224.81
2022-10-24T21:20:27.939Z,100222.81
2022-10-24T21:22:56.737Z,100227.34
2022-10-24T21:25:24.268Z,100233.13
2022-10-24T21:27:51.741Z,100227.88
2022-10-24T21:30:19.224Z,100233.47
2022-10-24T21:32:46.818Z,100224.81
2022-10-24T21:35:14.359Z,100235.31
2022-10-24T21:37:41.818Z,100232.06
2022-10-24T21:40:11.275Z,100237.53
2022-10-24T21:42:38.814Z,100234.94
2022-10-24T21:45:06.769Z,100235.97
2022-10-24T21:47:34.238Z,100232.06
2022-10-24T21:50:01.746Z,100231.28
2022-10-24T21:52:29.233Z,100247.00
2022-10-24T21:54:56.917Z,100236.69
2022-10-24T21:57:25.763Z,100247.38
2022-10-24T21:59:53.224Z,100243.38
2022-10-24T22:02:20.900Z,100254.19
2022-10-24T22:04:48.509Z,100257.53
2022-10-24T22:07:16.015Z,100255.09
2022-10-24T22:09:43.554Z,100250.53
2022-10-24T22:12:11.006Z,100263.16
2022-10-24T22:14:39.834Z,100268.00
2022-10-24T22:17:07.306Z,100281.63
2022-10-24T22:19:34.765Z,100269.25
2022-10-24T22:22:02.252Z,100287.63
2022-10-24T22:24:29.720Z,100275.41
2022-10-24T22:26:57.225Z,100269.25
2022-10-24T22:29:24.941Z,100272.47
2022-10-24T22:31:54.232Z,100289.00
2022-10-24T22:34:22.875Z,100287.47
2022-10-24T22:36:56.716Z,100283.69
2022-10-24T22:39:24.858Z,100296.00
2022-10-24T22:41:52.679Z,100296.88
2022-10-24T22:44:21.447Z,100299.78
2022-10-24T22:47:06.640Z,100286.63
2022-10-24T22:49:37.770Z,100300.47
2022-10-24T22:52:05.720Z,100308.63
2022-10-24T22:54:33.971Z,100305.59
2022-10-24T22:57:01.763Z,100287.19
2022-10-24T22:59:29.505Z,100318.28
2022-10-24T23:01:59.812Z,100334.06
2022-10-24T23:04:29.769Z,100332.47
2022-10-24T23:06:59.696Z,100322.84
2022-10-24T23:09:27.141Z,100324.06
2022-10-24T23:11:55.158Z,100295.06
2022-10-24T23:14:22.821Z,100325.94
2022-10-24T23:16:51.193Z,100316.00
2022-10-24T23:19:20.119Z,100325.66
2022-10-24T23:21:49.153Z,100337.09
2022-10-24T23:24:18.213Z,100342.44
2022-10-24T23:26:47.687Z,100317.66
2022-10-24T23:29:16.714Z,100326.19
2022-10-24T23:31:44.416Z,100332.97
2022-10-24T23:34:12.145Z,100331.56
2022-10-24T23:36:39.616Z,100348.69
2022-10-24T23:39:07.474Z,100343.28
2022-10-24T23:41:36.773Z,100343.50
2022-10-24T23:44:04.469Z,100339.03
2022-10-24T23:46:32.863Z,100352.03
2022-10-24T23:49:09.823Z,100348.91
2022-10-24T23:51:38.940Z,100348.16
2022-10-24T23:54:08.927Z,100356.13
2022-10-24T23:56:38.310Z,100348.50
2022-10-24T23:59:05.780Z,100353.78
